Time;durP1;ratioP1;P1;durP2;ratioP2;P2;SDS_P1;SDS_P2;PMS_P1;PMS_P2;Temp;Humidity;BMP_temperature;BMP_pressure;BME280_temperature;BME280_humidity;BME280_pressure;Samples;Min_cycle;Max_cycle;Signal;HPM_P1;HPM_P2
2022/05/27 00:01:06;;;;;;;9.45;3.70;;;;;;;;;;5048494;28;20024;-64
2022/05/27 00:03:32;;;;;;;8.10;4.38;;;;;;;;;;5048875;28;20021;-65
2022/05/27 00:05:58;;;;;;;8.93;3.80;;;;;;;;;;5049402;28;20591;-65
2022/05/27 00:08:25;;;;;;;7.63;3.97;;;;;;;;;;5048448;28;20187;-65
2022/05/27 00:10:52;;;;;;;10.25;4.30;;;;;;;;;;5048544;28;20033;-65
2022/05/27 00:13:18;;;;;;;7.85;3.58;;;;;;;;;;5049239;28;20019;-64
2022/05/27 00:15:44;;;;;;;8.00;3.58;;;;;;;;;;5048622;28;20033;-66
2022/05/27 00:18:10;;;;;;;9.45;3.90;;;;;;;;;;5049064;28;20458;-65
2022/05/27 00:20:37;;;;;;;18.20;4.43;;;;;;;;;;5049365;28;20390;-65
2022/05/27 00:23:03;;;;;;;11.23;4.22;;;;;;;;;;5048592;28;20433;-65
2022/05/27 00:25:29;;;;;;;9.60;3.80;;;;;;;;;;5050211;28;20036;-65
2022/05/27 00:27:57;;;;;;;8.57;4.70;;;;;;;;;;5050700;28;20452;-65
2022/05/27 00:30:23;;;;;;;10.32;4.63;;;;;;;;;;5051840;28;20036;-65
2022/05/27 00:32:49;;;;;;;11.40;4.53;;;;;;;;;;5053937;28;20409;-65
2022/05/27 00:35:16;;;;;;;12.07;4.90;;;;;;;;;;5055838;28;20033;-65
2022/05/27 00:37:42;;;;;;;16.13;4.97;;;;;;;;;;5055978;28;20021;-65
2022/05/27 00:40:09;;;;;;;12.40;4.38;;;;;;;;;;5055980;28;20033;-64
2022/05/27 00:42:38;;;;;;;14.43;4.63;;;;;;;;;;5055659;28;20024;-64
2022/05/27 00:45:05;;;;;;;15.55;5.07;;;;;;;;;;5055660;28;20497;-65
2022/05/27 00:47:32;;;;;;;15.65;4.72;;;;;;;;;;5055618;28;20029;-64
2022/05/27 00:50:00;;;;;;;8.60;4.35;;;;;;;;;;5055658;28;20096;-64
2022/05/27 00:52:29;;;;;;;10.77;4.22;;;;;;;;;;5055770;28;20033;-64
2022/05/27 00:54:55;;;;;;;12.18;4.78;;;;;;;;;;5055227;28;20401;-65
2022/05/27 00:57:36;;;;;;;7.47;3.80;;;;;;;;;;5055292;28;20029;-65
2022/05/27 01:00:07;;;;;;;7.93;3.55;;;;;;;;;;5050154;28;20108;-65
2022/05/27 01:02:34;;;;;;;6.50;4.00;;;;;;;;;;5050709;28;20551;-65
2022/05/27 01:05:01;;;;;;;6.18;4.20;;;;;;;;;;5052412;28;20040;-65
2022/05/27 01:07:27;;;;;;;8.88;4.03;;;;;;;;;;5053024;28;20029;-65
2022/05/27 01:09:53;;;;;;;12.43;4.70;;;;;;;;;;5053143;28;20025;-65
2022/05/27 01:12:33;;;;;;;12.68;3.97;;;;;;;;;;5052529;28;20191;-65
2022/05/27 01:15:11;;;;;;;8.82;4.32;;;;;;;;;;5053126;28;20036;-65
2022/05/27 01:17:40;;;;;;;12.82;4.90;;;;;;;;;;5052762;28;20073;-65
2022/05/27 01:20:18;;;;;;;9.52;4.35;;;;;;;;;;5052499;28;20051;-65
2022/05/27 01:22:56;;;;;;;9.15;4.60;;;;;;;;;;5053908;28;20519;-65
2022/05/27 01:25:48;;;;;;;13.82;4.10;;;;;;;;;;5052895;28;20387;-65
2022/05/27 01:28:16;;;;;;;14.65;5.20;;;;;;;;;;5053814;28;20033;-64
2022/05/27 01:31:03;;;;;;;10.85;4.43;;;;;;;;;;5053319;28;20388;-64
2022/05/27 01:33:37;;;;;;;11.43;4.53;;;;;;;;;;5053409;28;20108;-65
2022/05/27 01:36:04;;;;;;;11.77;4.38;;;;;;;;;;5053648;28;20557;-65
2022/05/27 01:38:49;;;;;;;13.90;4.50;;;;;;;;;;5053482;28;20029;-65
2022/05/27 01:41:27;;;;;;;14.35;4.50;;;;;;;;;;5052897;28;20037;-65
2022/05/27 01:43:59;;;;;;;14.60;4.57;;;;;;;;;;5052379;28;20032;-65
2022/05/27 01:46:33;;;;;;;12.93;4.35;;;;;;;;;;5053604;28;20056;-65
2022/05/27 01:49:08;;;;;;;8.18;4.25;;;;;;;;;;5052568;28;20025;-65
2022/05/27 01:51:37;;;;;;;13.65;4.47;;;;;;;;;;5053225;28;20127;-65
2022/05/27 01:54:03;;;;;;;9.95;4.63;;;;;;;;;;5053317;28;20084;-65
2022/05/27 01:56:32;;;;;;;14.63;5.00;;;;;;;;;;5051594;28;20021;-65
2022/05/27 01:59:14;;;;;;;12.13;4.38;;;;;;;;;;5052991;28;20398;-65
2022/05/27 02:01:42;;;;;;;10.63;4.38;;;;;;;;;;5052193;28;20029;-65
2022/05/27 02:04:11;;;;;;;9.77;4.47;;;;;;;;;;5052453;28;20036;-64
2022/05/27 02:06:45;;;;;;;8.85;4.63;;;;;;;;;;5051726;28;20424;-65
2022/05/27 02:09:10;;;;;;;9.02;4.68;;;;;;;;;;5052034;28;20429;-65
2022/05/27 02:11:38;;;;;;;9.02;4.82;;;;;;;;;;5051837;28;20256;-64
2022/05/27 02:14:04;;;;;;;9.05;4.63;;;;;;;;;;5052690;28;20079;-64
2022/05/27 02:16:33;;;;;;;13.65;5.55;;;;;;;;;;5052362;28;20466;-65
2022/05/27 02:19:22;;;;;;;10.85;4.07;;;;;;;;;;5051979;28;20044;-65
2022/05/27 02:21:58;;;;;;;13.40;4.47;;;;;;;;;;5051540;28;20057;-64
2022/05/27 02:24:27;;;;;;;8.70;4.22;;;;;;;;;;5052073;28;20036;-65
2022/05/27 02:27:03;;;;;;;14.02;4.40;;;;;;;;;;5051370;28;20486;-64
2022/05/27 02:29:30;;;;;;;10.85;4.68;;;;;;;;;;5053844;28;20584;-65
2022/05/27 02:31:58;;;;;;;9.95;4.70;;;;;;;;;;5053473;28;20028;-64
2022/05/27 02:37:25;;;;;;;12.60;5.85;;;;;;;;;;5053776;28;20039;-65
2022/05/27 02:39:51;;;;;;;10.40;4.07;;;;;;;;;;5053698;28;20024;-65
2022/05/27 02:42:40;;;;;;;11.70;4.95;;;;;;;;;;5053669;28;20036;-64
2022/05/27 02:45:07;;;;;;;12.13;4.55;;;;;;;;;;5053341;28;20076;-64
2022/05/27 02:47:39;;;;;;;9.93;4.40;;;;;;;;;;5053557;28;20063;-65
2022/05/27 02:50:09;;;;;;;11.30;4.88;;;;;;;;;;5053293;28;20385;-64
2022/05/27 02:52:53;;;;;;;11.02;4.30;;;;;;;;;;5053051;28;20024;-64
2022/05/27 02:55:42;;;;;;;8.75;4.22;;;;;;;;;;5053000;28;20043;-65
2022/05/27 02:58:09;;;;;;;12.18;4.38;;;;;;;;;;5052053;28;20068;-65
2022/05/27 03:00:37;;;;;;;12.35;4.40;;;;;;;;;;5051146;28;20470;-64
2022/05/27 03:03:03;;;;;;;13.25;4.60;;;;;;;;;;5050400;28;20100;-64
2022/05/27 03:05:48;;;;;;;8.90;4.43;;;;;;;;;;5050965;28;20458;-64
2022/05/27 03:08:32;;;;;;;9.63;5.05;;;;;;;;;;5051797;28;20021;-64
2022/05/27 03:11:02;;;;;;;6.88;4.05;;;;;;;;;;5051072;28;20025;-64
2022/05/27 03:13:44;;;;;;;8.55;4.35;;;;;;;;;;5051824;28;20017;-64
2022/05/27 03:16:32;;;;;;;7.80;3.90;;;;;;;;;;5053237;28;20033;-64
2022/05/27 03:19:13;;;;;;;12.02;5.18;;;;;;;;;;5052722;28;20474;-64
2022/05/27 03:21:42;;;;;;;9.80;4.20;;;;;;;;;;5052430;28;20029;-64
2022/05/27 03:24:27;;;;;;;10.25;4.25;;;;;;;;;;5052891;28;20024;-65
2022/05/27 03:27:03;;;;;;;11.52;3.80;;;;;;;;;;5052642;28;20024;-64
2022/05/27 03:29:33;;;;;;;16.02;4.80;;;;;;;;;;5052649;28;20037;-64
2022/05/27 03:32:18;;;;;;;10.45;4.30;;;;;;;;;;5052792;28;20158;-64
2022/05/27 03:34:49;;;;;;;10.88;4.57;;;;;;;;;;5052567;28;20029;-64
2022/05/27 03:37:23;;;;;;;17.50;4.47;;;;;;;;;;5052681;28;20032;-64
2022/05/27 03:39:52;;;;;;;15.75;4.35;;;;;;;;;;5052856;28;20405;-64
2022/05/27 03:42:19;;;;;;;9.30;4.18;;;;;;;;;;5051473;28;20527;-65
2022/05/27 03:44:50;;;;;;;12.20;3.78;;;;;;;;;;5048555;28;20028;-65
2022/05/27 03:47:16;;;;;;;11.80;4.57;;;;;;;;;;5049639;28;20106;-65
2022/05/27 03:49:42;;;;;;;8.85;3.97;;;;;;;;;;5048678;28;20036;-65
2022/05/27 03:52:15;;;;;;;7.15;3.72;;;;;;;;;;5049695;28;20021;-65
2022/05/27 03:54:41;;;;;;;14.65;4.30;;;;;;;;;;5049163;28;20064;-64
2022/05/27 03:57:07;;;;;;;10.75;4.15;;;;;;;;;;5048306;28;20370;-64
2022/05/27 03:59:33;;;;;;;13.43;4.43;;;;;;;;;;5048163;28;20286;-65
2022/05/27 04:01:59;;;;;;;14.23;4.63;;;;;;;;;;5049173;28;20041;-65
2022/05/27 04:04:27;;;;;;;7.95;3.88;;;;;;;;;;5048737;28;20047;-64
2022/05/27 04:06:53;;;;;;;13.20;4.60;;;;;;;;;;5049551;28;20025;-65
2022/05/27 04:09:21;;;;;;;13.32;4.95;;;;;;;;;;5052322;28;20036;-64
2022/05/27 04:11:47;;;;;;;11.05;4.22;;;;;;;;;;5052623;28;20083;-64
2022/05/27 04:14:13;;;;;;;9.93;4.95;;;;;;;;;;5053588;28;20602;-67
2022/05/27 04:16:40;;;;;;;13.00;4.07;;;;;;;;;;5053120;28;20552;-64
2022/05/27 04:19:06;;;;;;;9.60;3.75;;;;;;;;;;5052355;28;20299;-64
2022/05/27 04:21:33;;;;;;;8.77;4.07;;;;;;;;;;5053167;28;20441;-65
2022/05/27 04:23:59;;;;;;;8.85;4.00;;;;;;;;;;5054299;28;20017;-65
2022/05/27 04:26:25;;;;;;;12.73;4.70;;;;;;;;;;5054960;28;20394;-64
2022/05/27 04:28:51;;;;;;;10.15;4.30;;;;;;;;;;5054983;28;20542;-64
2022/05/27 04:31:18;;;;;;;10.60;4.30;;;;;;;;;;5054843;28;20028;-64
2022/05/27 04:33:44;;;;;;;9.57;4.45;;;;;;;;;;5054956;28;20021;-64
2022/05/27 04:36:11;;;;;;;8.25;4.30;;;;;;;;;;5054764;28;20043;-65
2022/05/27 04:38:38;;;;;;;15.73;4.30;;;;;;;;;;5054696;28;20021;-64
2022/05/27 04:41:04;;;;;;;17.70;5.07;;;;;;;;;;5054836;28;20127;-67
2022/05/27 04:43:30;;;;;;;9.10;4.30;;;;;;;;;;5054892;28;20021;-64
2022/05/27 04:45:56;;;;;;;15.23;4.20;;;;;;;;;;5054979;28;20033;-63
2022/05/27 04:48:22;;;;;;;13.02;4.90;;;;;;;;;;5054830;28;20071;-63
2022/05/27 04:50:49;;;;;;;14.40;4.90;;;;;;;;;;5054663;28;20067;-65
2022/05/27 04:53:15;;;;;;;8.88;3.80;;;;;;;;;;5054685;28;20044;-64
2022/05/27 04:55:41;;;;;;;9.77;4.50;;;;;;;;;;5054475;28;20124;-64
2022/05/27 04:58:08;;;;;;;16.98;4.57;;;;;;;;;;5054349;28;20104;-65
2022/05/27 05:00:39;;;;;;;16.05;4.53;;;;;;;;;;5054333;28;20047;-64
2022/05/27 05:03:06;;;;;;;26.48;5.07;;;;;;;;;;5054776;28;20082;-65
2022/05/27 05:05:33;;;;;;;14.38;5.30;;;;;;;;;;5054641;28;20413;-64
2022/05/27 05:08:02;;;;;;;17.85;5.32;;;;;;;;;;5054349;28;20108;-65
2022/05/27 05:10:28;;;;;;;18.73;5.07;;;;;;;;;;5054555;28;20366;-64
2022/05/27 05:12:54;;;;;;;13.77;4.50;;;;;;;;;;5054701;28;20556;-64
2022/05/27 05:15:21;;;;;;;12.88;5.00;;;;;;;;;;5054230;28;20099;-65
2022/05/27 05:17:47;;;;;;;13.95;5.15;;;;;;;;;;5053975;28;20040;-65
2022/05/27 05:20:15;;;;;;;12.30;4.88;;;;;;;;;;5052613;28;20025;-64
2022/05/27 05:22:41;;;;;;;19.90;4.65;;;;;;;;;;5053931;28;20226;-65
2022/05/27 05:25:08;;;;;;;15.02;4.88;;;;;;;;;;5053705;28;20413;-65
2022/05/27 05:27:34;;;;;;;11.55;4.93;;;;;;;;;;5053854;28;20032;-65
2022/05/27 05:30:01;;;;;;;17.45;5.22;;;;;;;;;;5053600;28;20037;-64
2022/05/27 05:32:27;;;;;;;14.23;4.63;;;;;;;;;;5053697;28;20112;-64
2022/05/27 05:34:54;;;;;;;12.63;4.40;;;;;;;;;;5053759;28;20025;-65
2022/05/27 05:37:20;;;;;;;6.00;3.45;;;;;;;;;;5053442;28;20401;-65
2022/05/27 05:39:46;;;;;;;7.65;3.00;;;;;;;;;;5053888;28;20024;-65
2022/05/27 05:42:13;;;;;;;10.82;3.30;;;;;;;;;;5054493;28;20041;-65
2022/05/27 05:44:39;;;;;;;11.05;3.13;;;;;;;;;;5053868;28;20020;-65
2022/05/27 05:47:06;;;;;;;9.68;3.53;;;;;;;;;;5054152;28;20083;-64
2022/05/27 05:49:32;;;;;;;7.78;2.85;;;;;;;;;;5052899;28;20033;-65
2022/05/27 05:51:59;;;;;;;8.65;2.50;;;;;;;;;;5052367;28;20037;-65
2022/05/27 05:54:26;;;;;;;9.45;3.08;;;;;;;;;;5053780;28;20057;-65
2022/05/27 05:56:52;;;;;;;6.57;2.92;;;;;;;;;;5054058;28;20036;-66
2022/05/27 05:59:19;;;;;;;7.80;2.67;;;;;;;;;;5053820;28;20021;-63
2022/05/27 06:01:45;;;;;;;4.45;2.70;;;;;;;;;;5063005;28;20029;-64
2022/05/27 06:04:11;;;;;;;13.70;2.85;;;;;;;;;;5073136;28;20024;-64
2022/05/27 06:06:38;;;;;;;18.85;3.10;;;;;;;;;;5065559;28;20057;-64
2022/05/27 06:09:05;;;;;;;8.43;2.50;;;;;;;;;;5053694;28;20040;-64
2022/05/27 06:11:31;;;;;;;14.57;2.55;;;;;;;;;;5062099;28;20047;-64
2022/05/27 06:13:57;;;;;;;12.45;4.10;;;;;;;;;;5073630;28;20024;-64
2022/05/27 06:16:23;;;;;;;16.90;6.03;;;;;;;;;;5073826;28;20404;-65
2022/05/27 06:18:49;;;;;;;28.67;7.32;;;;;;;;;;5073025;28;20115;-64
2022/05/27 06:21:15;;;;;;;28.90;6.95;;;;;;;;;;5073267;28;20370;-65
2022/05/27 06:23:41;;;;;;;17.15;6.45;;;;;;;;;;5073682;28;20021;-64
2022/05/27 06:26:11;;;;;;;18.58;4.90;;;;;;;;;;5072861;28;20028;-64
2022/05/27 06:34:25;;;;;;;14.80;4.88;;;;;;;;;;5073333;28;20459;-64
2022/05/27 06:37:06;;;;;;;13.73;4.68;;;;;;;;;;5073249;28;20025;-64
2022/05/27 06:39:32;;;;;;;14.63;5.20;;;;;;;;;;5072908;28;20029;-64
2022/05/27 06:41:59;;;;;;;21.30;5.15;;;;;;;;;;5073003;28;20033;-65
2022/05/27 06:44:25;;;;;;;13.80;5.30;;;;;;;;;;5073472;28;20020;-64
2022/05/27 06:46:52;;;;;;;19.25;5.97;;;;;;;;;;5073239;28;20495;-64
2022/05/27 06:49:21;;;;;;;19.25;6.18;;;;;;;;;;5073019;28;20031;-64
2022/05/27 06:51:47;;;;;;;36.95;7.00;;;;;;;;;;5072827;28;20028;-64
2022/05/27 06:54:15;;;;;;;36.67;7.53;;;;;;;;;;5072560;28;20065;-64
2022/05/27 06:56:41;;;;;;;27.40;5.80;;;;;;;;;;5073139;28;20033;-64
2022/05/27 06:59:08;;;;;;;18.13;5.35;;;;;;;;;;5073102;28;20067;-63
2022/05/27 07:01:34;;;;;;;16.35;4.75;;;;;;;;;;5073030;28;20032;-63
2022/05/27 07:04:01;;;;;;;10.00;3.90;;;;;;;;;;5073178;28;20027;-64
2022/05/27 07:06:30;;;;;;;13.63;4.40;;;;;;;;;;5072699;28;20035;-64
2022/05/27 07:08:56;;;;;;;9.48;3.47;;;;;;;;;;5071816;28;20545;-64
2022/05/27 07:11:22;;;;;;;8.10;3.47;;;;;;;;;;5072940;28;20103;-64
2022/05/27 07:13:48;;;;;;;12.55;3.63;;;;;;;;;;5073068;28;20020;-65
2022/05/27 07:16:14;;;;;;;13.52;3.80;;;;;;;;;;5073066;28;20489;-64
2022/05/27 07:18:40;;;;;;;10.82;3.38;;;;;;;;;;5073052;28;20024;-64
2022/05/27 07:21:07;;;;;;;16.60;3.65;;;;;;;;;;5072695;28;20357;-64
2022/05/27 07:23:33;;;;;;;14.77;4.60;;;;;;;;;;5072985;28;20032;-68
2022/05/27 07:26:00;;;;;;;9.27;4.25;;;;;;;;;;5072758;28;20362;-64
2022/05/27 07:28:26;;;;;;;11.60;4.70;;;;;;;;;;5072462;28;20028;-64
2022/05/27 07:30:53;;;;;;;13.20;5.28;;;;;;;;;;5072402;28;20412;-64
2022/05/27 07:33:20;;;;;;;11.18;4.68;;;;;;;;;;5073106;28;20052;-64
2022/05/27 07:35:46;;;;;;;13.27;3.92;;;;;;;;;;5073146;28;20060;-64
2022/05/27 07:38:12;;;;;;;9.65;4.05;;;;;;;;;;5072754;28;20071;-64
2022/05/27 07:40:38;;;;;;;9.40;5.20;;;;;;;;;;5072568;28;20040;-64
2022/05/27 07:43:05;;;;;;;10.18;5.03;;;;;;;;;;5074962;28;20439;-64
2022/05/27 07:45:32;;;;;;;14.25;5.22;;;;;;;;;;5076953;28;20110;-64
2022/05/27 07:47:58;;;;;;;12.57;4.32;;;;;;;;;;5077018;28;20033;-64
2022/05/27 07:50:24;;;;;;;9.05;3.75;;;;;;;;;;5076806;28;20374;-64
2022/05/27 07:52:50;;;;;;;13.73;4.60;;;;;;;;;;5076931;28;20051;-64
2022/05/27 07:55:16;;;;;;;12.98;3.80;;;;;;;;;;5076737;28;20078;-64
2022/05/27 07:57:46;;;;;;;14.93;3.75;;;;;;;;;;5076667;28;20029;-63
2022/05/27 08:00:15;;;;;;;8.65;3.20;;;;;;;;;;5076231;28;20025;-65
2022/05/27 08:02:41;;;;;;;13.40;3.22;;;;;;;;;;5076469;28;20036;-64
2022/05/27 08:05:09;;;;;;;11.35;3.47;;;;;;;;;;5076373;28;20480;-64
2022/05/27 08:07:35;;;;;;;9.65;2.65;;;;;;;;;;5076379;28;20028;-65
2022/05/27 08:10:01;;;;;;;14.75;3.13;;;;;;;;;;5076393;28;20056;-64
2022/05/27 08:12:27;;;;;;;11.13;3.35;;;;;;;;;;5076352;28;20494;-64
2022/05/27 08:14:53;;;;;;;6.85;2.95;;;;;;;;;;5076408;28;20035;-65
2022/05/27 08:17:19;;;;;;;10.65;2.85;;;;;;;;;;5076283;28;20020;-65
2022/05/27 08:19:45;;;;;;;11.93;2.83;;;;;;;;;;5074261;28;20596;-64
2022/05/27 08:22:11;;;;;;;11.63;3.35;;;;;;;;;;5074475;28;20115;-64
2022/05/27 08:24:37;;;;;;;9.20;3.40;;;;;;;;;;5076239;28;20032;-64
2022/05/27 08:27:03;;;;;;;10.15;3.22;;;;;;;;;;5076185;28;20028;-64
2022/05/27 08:29:29;;;;;;;11.95;3.28;;;;;;;;;;5076104;28;20035;-64
2022/05/27 08:31:55;;;;;;;10.07;3.50;;;;;;;;;;5076196;28;20017;-63
2022/05/27 08:39:52;;;;;;;7.20;3.20;;;;;;;;;;5075261;28;20431;-64
2022/05/27 08:42:27;;;;;;;11.65;2.75;;;;;;;;;;5073603;28;20036;-64
2022/05/27 08:44:56;;;;;;;10.98;3.20;;;;;;;;;;5074396;28;20024;-64
2022/05/27 08:47:29;;;;;;;8.93;3.30;;;;;;;;;;5075091;28;20056;-64
2022/05/27 08:50:06;;;;;;;8.27;3.38;;;;;;;;;;5075692;28;20145;-64
2022/05/27 08:52:32;;;;;;;8.45;3.28;;;;;;;;;;5075726;28;20024;-64
2022/05/27 08:55:06;;;;;;;10.68;3.03;;;;;;;;;;5075174;28;20052;-64
2022/05/27 09:00:34;;;;;;;8.52;2.90;;;;;;;;;;5013925;28;20096;-64
2022/05/27 09:03:02;;;;;;;8.45;2.88;;;;;;;;;;5062713;28;20033;-63
2022/05/27 09:05:37;;;;;;;7.82;3.25;;;;;;;;;;5075456;28;20024;-64
2022/05/27 09:08:14;;;;;;;9.88;3.10;;;;;;;;;;5075627;28;20052;-64
2022/05/27 09:10:51;;;;;;;7.32;3.05;;;;;;;;;;5075635;28;20086;-64
2022/05/27 09:13:17;;;;;;;9.35;2.58;;;;;;;;;;5075299;28;20032;-63
2022/05/27 09:15:54;;;;;;;12.18;3.33;;;;;;;;;;5075070;28;20477;-64
2022/05/27 09:18:20;;;;;;;9.07;3.05;;;;;;;;;;5075145;28;20400;-64
2022/05/27 09:20:49;;;;;;;9.10;2.72;;;;;;;;;;5074886;28;20043;-64
2022/05/27 09:23:15;;;;;;;10.05;3.00;;;;;;;;;;5075266;28;20350;-64
2022/05/27 09:25:41;;;;;;;8.10;2.80;;;;;;;;;;5075209;28;20107;-64
2022/05/27 09:28:14;;;;;;;7.13;2.35;;;;;;;;;;5075224;28;20028;-64
2022/05/27 09:30:41;;;;;;;10.85;3.10;;;;;;;;;;5074939;28;20108;-64
2022/05/27 09:33:09;;;;;;;13.07;3.65;;;;;;;;;;5075248;28;20052;-64
2022/05/27 09:35:38;;;;;;;9.85;3.00;;;;;;;;;;5074564;28;20028;-69
2022/05/27 09:38:06;;;;;;;14.05;2.90;;;;;;;;;;5074765;28;20538;-67
2022/05/27 09:40:32;;;;;;;10.35;3.03;;;;;;;;;;5074109;28;20046;-64
2022/05/27 09:43:01;;;;;;;17.40;3.53;;;;;;;;;;5074390;28;20104;-64
2022/05/27 09:45:27;;;;;;;10.55;3.08;;;;;;;;;;5074526;28;20024;-63
2022/05/27 09:47:58;;;;;;;8.90;2.88;;;;;;;;;;5072623;28;20059;-63
2022/05/27 09:50:26;;;;;;;7.88;3.78;;;;;;;;;;5073955;28;20435;-64
2022/05/27 09:52:57;;;;;;;8.95;2.80;;;;;;;;;;5074011;28;20116;-63
2022/05/27 09:55:38;;;;;;;11.98;3.60;;;;;;;;;;5073648;28;20036;-63
2022/05/27 09:58:05;;;;;;;8.15;3.35;;;;;;;;;;5073954;28;20024;-63
2022/05/27 10:00:36;;;;;;;17.80;3.20;;;;;;;;;;5073984;28;20039;-63
2022/05/27 10:03:19;;;;;;;12.20;3.50;;;;;;;;;;5074265;28;20016;-63
2022/05/27 10:05:49;;;;;;;12.48;3.08;;;;;;;;;;5073488;28;20393;-64
2022/05/27 10:08:26;;;;;;;7.75;3.05;;;;;;;;;;5073695;28;20032;-64
2022/05/27 10:11:05;;;;;;;11.13;2.88;;;;;;;;;;5073719;28;20027;-63
2022/05/27 10:13:34;;;;;;;12.30;3.33;;;;;;;;;;5073695;28;20032;-64
2022/05/27 10:16:08;;;;;;;19.80;3.83;;;;;;;;;;5073202;28;20033;-70
2022/05/27 10:18:34;;;;;;;13.77;3.15;;;;;;;;;;5073152;28;20013;-68
2022/05/27 10:21:11;;;;;;;7.13;3.40;;;;;;;;;;5073710;28;20086;-64
2022/05/27 10:23:42;;;;;;;11.98;3.60;;;;;;;;;;5073081;28;20058;-64
2022/05/27 10:26:23;;;;;;;15.07;3.13;;;;;;;;;;5072930;28;20068;-63
2022/05/27 10:28:58;;;;;;;11.05;3.17;;;;;;;;;;5070976;28;20581;-63
2022/05/27 10:31:24;;;;;;;8.90;3.03;;;;;;;;;;5070943;28;20048;-63
2022/05/27 10:33:51;;;;;;;7.22;2.55;;;;;;;;;;5070535;28;20376;-65
2022/05/27 10:36:23;;;;;;;12.50;3.10;;;;;;;;;;5071286;28;20028;-63
2022/05/27 10:39:12;;;;;;;12.77;3.05;;;;;;;;;;5070786;28;20572;-65
2022/05/27 10:41:38;;;;;;;14.93;3.38;;;;;;;;;;5064219;28;20492;-64
2022/05/27 10:44:21;;;;;;;8.10;2.75;;;;;;;;;;5071563;28;20046;-64
2022/05/27 10:46:54;;;;;;;9.52;2.97;;;;;;;;;;5070909;28;20050;-64
2022/05/27 10:49:31;;;;;;;13.38;2.70;;;;;;;;;;5070673;28;20104;-64
2022/05/27 10:52:17;;;;;;;11.80;2.95;;;;;;;;;;5070994;28;20021;-63
2022/05/27 10:54:49;;;;;;;9.82;2.92;;;;;;;;;;5070344;28;20076;-64
2022/05/27 11:02:56;;;;;;;10.70;2.75;;;;;;;;;;5071599;28;20051;-66
2022/05/27 11:05:25;;;;;;;13.77;3.35;;;;;;;;;;5072698;28;20028;-64
2022/05/27 11:07:51;;;;;;;16.52;2.90;;;;;;;;;;5071589;28;20033;-64
2022/05/27 11:10:20;;;;;;;16.10;3.22;;;;;;;;;;5072900;28;20023;-69
2022/05/27 11:16:05;;;;;;;12.88;3.17;;;;;;;;;;5068486;28;20027;-64
2022/05/27 11:18:46;;;;;;;15.15;3.05;;;;;;;;;;5070361;28;20035;-63
2022/05/27 11:21:18;;;;;;;10.55;3.42;;;;;;;;;;5073021;28;20067;-63
2022/05/27 11:23:57;;;;;;;16.50;3.50;;;;;;;;;;5072658;28;20028;-64
2022/05/27 11:26:26;;;;;;;9.55;2.90;;;;;;;;;;5071702;28;20102;-64
2022/05/27 11:29:02;;;;;;;11.10;2.70;;;;;;;;;;5072686;28;20025;-64
2022/05/27 11:31:35;;;;;;;8.13;3.00;;;;;;;;;;5072199;28;20028;-64
2022/05/27 11:34:25;;;;;;;8.98;2.95;;;;;;;;;;5072153;28;20039;-64
2022/05/27 11:37:05;;;;;;;10.13;3.33;;;;;;;;;;5053770;28;20043;-64
2022/05/27 11:39:49;;;;;;;15.88;3.20;;;;;;;;;;5069515;28;20028;-64
2022/05/27 11:42:33;;;;;;;10.60;3.40;;;;;;;;;;5069682;28;20041;-69
2022/05/27 11:45:06;;;;;;;15.75;3.45;;;;;;;;;;5071165;28;20469;-67
2022/05/27 11:47:46;;;;;;;14.73;3.53;;;;;;;;;;5069776;28;20036;-64
2022/05/27 11:50:15;;;;;;;17.08;3.65;;;;;;;;;;5069599;28;20036;-65
2022/05/27 11:52:56;;;;;;;19.33;3.40;;;;;;;;;;5071416;28;20024;-65
2022/05/27 11:55:25;;;;;;;11.45;3.42;;;;;;;;;;5070378;28;20055;-69
2022/05/27 11:57:54;;;;;;;9.57;3.38;;;;;;;;;;5071288;28;20075;-65
2022/05/27 12:00:23;;;;;;;8.82;3.10;;;;;;;;;;5071667;28;20021;-65
2022/05/27 12:02:55;;;;;;;11.48;3.25;;;;;;;;;;5073026;28;20373;-64
2022/05/27 12:05:37;;;;;;;14.57;3.65;;;;;;;;;;5072343;28;20040;-65
2022/05/27 12:08:18;;;;;;;14.85;4.00;;;;;;;;;;5072030;28;20381;-65
2022/05/27 12:10:54;;;;;;;6.88;3.00;;;;;;;;;;5071500;28;20025;-64
2022/05/27 12:13:23;;;;;;;16.83;3.33;;;;;;;;;;5071818;28;20033;-65
2022/05/27 12:15:53;;;;;;;11.07;3.60;;;;;;;;;;5072475;28;20476;-64
2022/05/27 12:18:39;;;;;;;11.07;3.23;;;;;;;;;;5072665;28;20079;-65
2022/05/27 12:21:08;;;;;;;15.05;3.10;;;;;;;;;;5072494;28;20048;-64
2022/05/27 12:23:36;;;;;;;13.73;3.58;;;;;;;;;;5072226;28;20035;-65
2022/05/27 12:26:02;;;;;;;17.75;3.30;;;;;;;;;;5072370;28;20025;-64
2022/05/27 12:28:30;;;;;;;9.35;3.15;;;;;;;;;;5073522;28;20033;-64
2022/05/27 12:30:56;;;;;;;16.05;4.03;;;;;;;;;;5076070;28;20041;-65
2022/05/27 12:33:25;;;;;;;11.40;3.20;;;;;;;;;;5075974;28;20035;-65
2022/05/27 12:36:02;;;;;;;21.92;3.50;;;;;;;;;;5075714;28;20024;-65
2022/05/27 12:38:29;;;;;;;11.23;3.75;;;;;;;;;;5075463;28;20480;-65
2022/05/27 12:40:55;;;;;;;16.08;3.20;;;;;;;;;;5075092;28;20477;-64
2022/05/27 12:43:24;;;;;;;11.07;3.03;;;;;;;;;;5075856;28;20031;-65
2022/05/27 12:45:53;;;;;;;15.77;4.00;;;;;;;;;;5075429;28;20025;-64
2022/05/27 12:48:43;;;;;;;10.18;3.42;;;;;;;;;;5075208;28;20027;-64
2022/05/27 12:51:29;;;;;;;14.82;3.05;;;;;;;;;;5070447;28;20043;-65
2022/05/27 12:53:58;;;;;;;10.18;4.00;;;;;;;;;;5075207;28;20084;-65
2022/05/27 13:02:18;;;;;;;23.85;4.00;;;;;;;;;;5072806;28;20439;-64
2022/05/27 13:04:44;;;;;;;10.52;3.33;;;;;;;;;;5072956;28;20033;-64
2022/05/27 13:07:11;;;;;;;11.32;3.13;;;;;;;;;;5074947;28;20377;-64
2022/05/27 13:09:47;;;;;;;16.42;3.33;;;;;;;;;;5074868;28;20025;-65
2022/05/27 13:12:31;;;;;;;14.93;3.05;;;;;;;;;;5074664;28;20028;-66
2022/05/27 13:15:06;;;;;;;14.57;3.53;;;;;;;;;;5072852;28;20020;-65
2022/05/27 13:17:32;;;;;;;11.60;3.00;;;;;;;;;;5074117;28;20054;-66
2022/05/27 13:20:19;;;;;;;17.33;3.50;;;;;;;;;;5073021;28;20027;-64
2022/05/27 13:22:56;;;;;;;10.55;2.78;;;;;;;;;;5073009;28;20588;-64
2022/05/27 13:25:27;;;;;;;16.05;3.50;;;;;;;;;;5071486;28;20016;-65
2022/05/27 13:28:04;;;;;;;19.83;3.15;;;;;;;;;;5071710;28;20038;-64
2022/05/27 13:30:48;;;;;;;13.63;3.45;;;;;;;;;;5073021;28;20035;-64
2022/05/27 13:33:14;;;;;;;18.02;3.33;;;;;;;;;;5073390;28;20032;-64
2022/05/27 13:35:43;;;;;;;13.65;4.53;;;;;;;;;;5073734;28;20035;-64
2022/05/27 13:38:10;;;;;;;10.13;3.03;;;;;;;;;;5073754;28;20028;-68
2022/05/27 13:40:37;;;;;;;17.33;3.83;;;;;;;;;;5073224;28;20036;-65
2022/05/27 13:43:11;;;;;;;11.40;3.85;;;;;;;;;;5074654;28;20028;-65
2022/05/27 13:45:49;;;;;;;13.43;3.38;;;;;;;;;;5074267;28;20021;-64
2022/05/27 13:48:18;;;;;;;17.67;3.50;;;;;;;;;;5074175;28;20111;-64
2022/05/27 13:50:46;;;;;;;15.45;3.22;;;;;;;;;;5074163;28;20396;-67
2022/05/27 13:53:28;;;;;;;11.70;3.08;;;;;;;;;;5073749;28;20590;-63
2022/05/27 13:56:06;;;;;;;13.43;3.30;;;;;;;;;;5073863;28;20032;-64
2022/05/27 13:58:35;;;;;;;14.75;3.38;;;;;;;;;;5073879;28;20074;-63
2022/05/27 14:01:02;;;;;;;12.48;3.33;;;;;;;;;;5073584;28;20036;-65
2022/05/27 14:03:38;;;;;;;16.02;3.47;;;;;;;;;;5073552;28;20067;-64
2022/05/27 14:06:06;;;;;;;14.68;3.03;;;;;;;;;;5073859;28;20511;-65
2022/05/27 14:08:35;;;;;;;13.75;3.10;;;;;;;;;;5073090;28;20062;-63
2022/05/27 14:11:06;;;;;;;17.10;3.10;;;;;;;;;;5073342;28;20411;-64
2022/05/27 14:13:33;;;;;;;13.10;3.30;;;;;;;;;;5073253;28;20431;-63
2022/05/27 14:15:59;;;;;;;12.00;3.25;;;;;;;;;;5072776;28;20058;-67
2022/05/27 14:18:33;;;;;;;15.68;3.55;;;;;;;;;;5073530;28;20024;-69
2022/05/27 14:23:45;;;;;;;10.32;2.88;;;;;;;;;;5073238;28;20035;-63
2022/05/27 14:26:12;;;;;;;12.05;3.03;;;;;;;;;;5072839;28;20055;-64
2022/05/27 14:28:38;;;;;;;14.63;3.72;;;;;;;;;;5073314;28;20484;-63
2022/05/27 14:31:18;;;;;;;9.10;3.35;;;;;;;;;;5073094;28;20035;-64
2022/05/27 14:33:51;;;;;;;14.63;3.70;;;;;;;;;;5073528;28;20079;-63
2022/05/27 14:36:19;;;;;;;10.93;3.88;;;;;;;;;;5073049;28;20028;-64
2022/05/27 14:38:46;;;;;;;14.38;3.75;;;;;;;;;;5073262;28;20441;-64
2022/05/27 14:41:18;;;;;;;19.65;4.25;;;;;;;;;;5072991;28;20093;-64
2022/05/27 14:43:47;;;;;;;17.67;3.35;;;;;;;;;;5073221;28;20048;-64
2022/05/27 14:46:21;;;;;;;14.10;3.40;;;;;;;;;;5071967;28;20033;-64
2022/05/27 14:48:54;;;;;;;9.68;3.10;;;;;;;;;;5072445;28;20104;-64
2022/05/27 14:51:29;;;;;;;17.30;3.35;;;;;;;;;;5072255;28;20397;-64
2022/05/27 14:53:57;;;;;;;12.70;3.92;;;;;;;;;;5072687;28;20048;-64
2022/05/27 14:56:24;;;;;;;13.45;3.10;;;;;;;;;;5072666;28;20111;-64
2022/05/27 14:58:51;;;;;;;12.18;3.78;;;;;;;;;;5071560;28;20032;-64
2022/05/27 15:01:29;;;;;;;12.45;3.13;;;;;;;;;;5072422;28;20055;-64
2022/05/27 15:04:13;;;;;;;14.98;3.47;;;;;;;;;;5072115;28;20377;-64
2022/05/27 15:06:41;;;;;;;11.10;3.38;;;;;;;;;;5071177;28;20024;-64
2022/05/27 15:09:21;;;;;;;20.27;4.53;;;;;;;;;;5069979;28;20123;-64
2022/05/27 15:11:48;;;;;;;16.87;3.27;;;;;;;;;;5070326;28;20107;-64
2022/05/27 15:14:25;;;;;;;15.23;3.28;;;;;;;;;;5070121;28;20042;-64
2022/05/27 15:17:03;;;;;;;15.05;3.10;;;;;;;;;;5069642;28;20060;-63
2022/05/27 15:19:36;;;;;;;15.55;3.45;;;;;;;;;;5070472;28;20047;-63
2022/05/27 15:22:04;;;;;;;24.77;3.40;;;;;;;;;;5070371;28;20024;-65
2022/05/27 15:24:35;;;;;;;16.38;3.22;;;;;;;;;;5070676;28;20020;-63
2022/05/27 15:35:25;;;;;;;17.17;3.83;;;;;;;;;;5070186;28;20109;-63